createdAt,value
2022-09-15T00:01:19.306Z,0.90
2022-09-15T00:03:47.601Z,0.70
2022-09-15T00:06:16.156Z,0.70
2022-09-15T00:08:45.693Z,0.70
2022-09-15T00:11:18.331Z,0.80
2022-09-15T00:13:46.846Z,0.70
2022-09-15T00:16:15.731Z,0.80
2022-09-15T00:18:44.995Z,0.90
2022-09-15T00:21:15.998Z,0.80
2022-09-15T00:23:45.749Z,0.87
2022-09-15T00:26:16.789Z,0.80
2022-09-15T00:28:45.171Z,0.90
2022-09-15T00:31:15.805Z,0.80
2022-09-15T00:33:44.457Z,0.70
2022-09-15T00:36:14.214Z,0.70
2022-09-15T00:38:42.866Z,0.63
2022-09-15T00:41:14.205Z,0.70
2022-09-15T00:43:45.968Z,0.80
2022-09-15T00:46:14.758Z,0.70
2022-09-15T00:48:45.492Z,0.70
2022-09-15T00:51:17.911Z,0.80
2022-09-15T00:53:49.398Z,0.70
2022-09-15T00:56:20.852Z,0.80
2022-09-15T00:58:55.189Z,0.70
2022-09-15T01:01:26.570Z,0.77
2022-09-15T01:03:56.051Z,0.60
2022-09-15T01:06:28.056Z,0.60
2022-09-15T01:09:04.438Z,0.67
2022-09-15T01:11:34.207Z,0.80
2022-09-15T01:14:02.464Z,0.73
2022-09-15T01:16:41.342Z,0.70
2022-09-15T01:19:33.704Z,0.90
2022-09-15T01:22:12.815Z,0.87
2022-09-15T01:25:04.720Z,0.80
2022-09-15T01:28:17.272Z,0.80
2022-09-15T01:30:52.998Z,0.70
2022-09-15T01:33:31.986Z,0.70
2022-09-15T01:36:14.319Z,0.73
2022-09-15T01:38:51.849Z,0.77
2022-09-15T01:41:25.558Z,0.70
2022-09-15T01:44:00.858Z,0.80
2022-09-15T01:46:34.958Z,0.80
2022-09-15T01:49:04.940Z,0.70
2022-09-15T01:51:34.639Z,0.80
2022-09-15T01:54:05.404Z,0.70
2022-09-15T01:56:33.433Z,0.73
2022-09-15T01:59:01.477Z,0.70
2022-09-15T02:01:40.697Z,0.97
2022-09-15T02:04:18.097Z,0.87
2022-09-15T02:06:54.326Z,0.80
2022-09-15T02:09:29.368Z,0.70
2022-09-15T02:12:05.908Z,0.80
2022-09-15T02:14:49.165Z,0.80
2022-09-15T02:17:23.615Z,0.90
2022-09-15T02:19:53.922Z,0.90
2022-09-15T02:22:27.917Z,0.80
2022-09-15T02:25:02.941Z,0.70
2022-09-15T02:27:37.326Z,0.80
2022-09-15T02:30:09.730Z,0.90
2022-09-15T02:32:43.049Z,0.77
2022-09-15T02:35:12.723Z,0.80
2022-09-15T02:37:40.861Z,0.80
2022-09-15T02:40:09.822Z,0.97
2022-09-15T02:42:39.254Z,0.70
2022-09-15T02:45:08.248Z,0.80
2022-09-15T02:47:36.293Z,0.90
2022-09-15T02:50:06.741Z,0.70
2022-09-15T02:52:34.753Z,0.60
2022-09-15T02:55:02.752Z,0.90
2022-09-15T02:57:30.712Z,0.90
2022-09-15T03:00:21.162Z,0.97
2022-09-15T03:02:52.005Z,0.87
2022-09-15T03:05:24.753Z,0.90
2022-09-15T03:07:53.402Z,0.87
2022-09-15T03:10:21.754Z,0.80
2022-09-15T03:12:52.772Z,0.90
2022-09-15T03:15:23.326Z,0.90
2022-09-15T03:17:51.970Z,0.80
2022-09-15T03:20:23.479Z,0.90
2022-09-15T03:22:51.865Z,0.97
2022-09-15T03:25:20.232Z,0.80
2022-09-15T03:27:48.406Z,1.00
2022-09-15T03:30:16.577Z,0.90
2022-09-15T03:32:44.846Z,0.80
2022-09-15T03:35:12.986Z,0.70
2022-09-15T03:37:42.423Z,0.70
2022-09-15T03:40:11.728Z,0.87
2022-09-15T03:42:39.841Z,0.60
2022-09-15T03:45:08.782Z,0.80
2022-09-15T03:47:36.786Z,0.60
2022-09-15T03:50:06.123Z,0.80
2022-09-15T03:52:34.162Z,0.70
2022-09-15T03:55:03.556Z,0.80
2022-09-15T03:57:31.540Z,0.90
2022-09-15T03:59:59.982Z,0.80
2022-09-15T04:02:28.211Z,0.70
2022-09-15T04:04:56.264Z,0.70
2022-09-15T04:07:24.288Z,0.70
2022-09-15T04:09:52.302Z,0.60
2022-09-15T04:12:21.821Z,0.60
2022-09-15T04:14:49.831Z,0.63
2022-09-15T04:17:17.878Z,0.67
2022-09-15T04:19:45.826Z,0.50
2022-09-15T04:22:17.896Z,0.70
2022-09-15T04:24:48.055Z,0.63
2022-09-15T04:27:16.492Z,0.73
2022-09-15T04:29:46.252Z,0.70
2022-09-15T04:32:14.249Z,0.70
2022-09-15T04:34:42.327Z,0.60
2022-09-15T04:37:11.135Z,0.70
2022-09-15T04:39:39.582Z,0.70
2022-09-15T04:42:07.879Z,0.80
2022-09-15T04:44:35.983Z,0.67
2022-09-15T04:47:05.934Z,0.70
2022-09-15T04:49:33.979Z,0.70
2022-09-15T04:52:02.839Z,0.60
2022-09-15T04:54:33.011Z,0.50
2022-09-15T04:57:00.904Z,0.77
2022-09-15T04:59:29.117Z,0.80
2022-09-15T05:01:57.725Z,0.70
2022-09-15T05:04:27.220Z,0.50
2022-09-15T05:06:55.197Z,0.80
2022-09-15T05:09:23.358Z,0.70
2022-09-15T05:11:51.365Z,0.80
2022-09-15T05:14:19.433Z,0.50
2022-09-15T05:16:47.469Z,0.63
2022-09-15T05:19:15.493Z,0.70
2022-09-15T05:21:44.946Z,0.70
2022-09-15T05:24:12.853Z,0.60
2022-09-15T05:26:41.695Z,0.70
2022-09-15T05:29:09.799Z,0.70
2022-09-15T05:31:37.841Z,0.80
2022-09-15T05:34:07.361Z,0.73
2022-09-15T05:36:35.600Z,0.67
2022-09-15T05:39:05.260Z,0.80
2022-09-15T05:41:33.166Z,0.63
2022-09-15T05:44:01.170Z,0.70
2022-09-15T05:46:30.185Z,0.70
2022-09-15T05:48:59.683Z,0.70
2022-09-15T05:51:27.781Z,0.70
2022-09-15T05:53:55.816Z,0.70
2022-09-15T05:56:25.858Z,0.73
2022-09-15T05:58:54.035Z,0.90
2022-09-15T06:01:23.761Z,1.00
2022-09-15T06:03:52.537Z,0.70
2022-09-15T06:06:21.877Z,0.63
2022-09-15T06:08:55.583Z,0.63
2022-09-15T06:11:29.125Z,0.70
2022-09-15T06:13:57.398Z,0.80
2022-09-15T06:16:26.696Z,0.80
2022-09-15T06:18:55.707Z,0.70
2022-09-15T06:21:25.441Z,0.80
2022-09-15T06:23:55.128Z,0.90
2022-09-15T06:26:23.776Z,0.80
2022-09-15T06:28:55.174Z,0.90
2022-09-15T06:31:24.461Z,0.70
2022-09-15T06:33:54.423Z,0.77
2022-09-15T06:36:26.140Z,0.90
2022-09-15T06:38:54.436Z,1.00
2022-09-15T06:41:22.763Z,0.90
2022-09-15T06:43:53.272Z,1.10
2022-09-15T06:46:23.514Z,1.10
2022-09-15T06:48:52.127Z,1.10
2022-09-15T06:51:23.309Z,1.00
2022-09-15T06:53:51.953Z,1.20
2022-09-15T06:56:22.111Z,1.00
2022-09-15T06:58:50.375Z,1.10
2022-09-15T07:01:25.311Z,1.13
2022-09-15T07:03:57.519Z,1.10
2022-09-15T07:06:26.413Z,1.10
2022-09-15T07:08:55.143Z,1.10
2022-09-15T07:11:23.106Z,1.10
2022-09-15T07:13:51.200Z,1.13
2022-09-15T07:16:20.763Z,1.20
2022-09-15T07:18:50.719Z,1.20
2022-09-15T07:21:21.642Z,1.30
2022-09-15T07:23:50.907Z,1.43
2022-09-15T07:26:20.915Z,1.70
2022-09-15T07:28:51.130Z,1.57
2022-09-15T07:31:21.483Z,1.40
2022-09-15T07:33:51.452Z,1.40
2022-09-15T07:36:19.527Z,1.50
2022-09-15T07:38:50.027Z,1.63
2022-09-15T07:41:19.765Z,1.53
2022-09-15T07:43:48.733Z,1.50
2022-09-15T07:46:19.081Z,1.57
2022-09-15T07:48:47.822Z,1.60
2022-09-15T07:51:18.078Z,1.70
2022-09-15T07:53:47.753Z,1.70
2022-09-15T07:56:17.705Z,1.70
2022-09-15T07:58:45.861Z,1.60
2022-09-15T08:01:14.841Z,1.70
2022-09-15T08:03:44.251Z,1.80
2022-09-15T08:06:12.291Z,1.70
2022-09-15T08:08:44.119Z,1.80
2022-09-15T08:11:18.390Z,1.83
2022-09-15T08:13:47.299Z,1.70
2022-09-15T08:16:18.084Z,2.00
2022-09-15T08:18:46.486Z,1.70
2022-09-15T08:21:16.196Z,1.70
2022-09-15T08:23:46.008Z,2.10
2022-09-15T08:26:14.752Z,2.00
2022-09-15T08:28:42.807Z,1.80
2022-09-15T08:31:13.917Z,1.67
2022-09-15T08:33:45.722Z,1.60
2022-09-15T08:36:14.596Z,1.80
2022-09-15T08:38:44.564Z,1.60
2022-09-15T08:41:17.986Z,1.80
2022-09-15T08:43:52.650Z,1.80
2022-09-15T08:46:26.984Z,1.83
2022-09-15T08:49:02.961Z,1.60
2022-09-15T08:51:36.028Z,1.50
2022-09-15T08:54:08.846Z,1.63
2022-09-15T08:56:39.634Z,1.70
2022-09-15T08:59:09.588Z,1.67
2022-09-15T09:02:15.097Z,1.60
2022-09-15T09:05:22.842Z,1.70
2022-09-15T09:08:09.638Z,1.50
2022-09-15T09:10:46.845Z,1.50
2022-09-15T09:13:25.277Z,1.70
2022-09-15T09:16:09.910Z,1.63
2022-09-15T09:18:52.359Z,1.50
2022-09-15T09:21:26.636Z,1.70
2022-09-15T09:24:03.324Z,1.70
2022-09-15T09:26:33.852Z,1.67
2022-09-15T09:29:08.976Z,1.70
2022-09-15T09:31:37.531Z,1.70
2022-09-15T09:34:20.581Z,1.70
2022-09-15T09:36:55.668Z,1.70
2022-09-15T09:39:23.622Z,1.60
2022-09-15T09:41:51.661Z,1.60
2022-09-15T09:44:21.496Z,1.50
2022-09-15T09:46:49.586Z,1.50
2022-09-15T09:49:23.083Z,1.70
2022-09-15T09:51:53.068Z,1.50
2022-09-15T09:54:26.023Z,1.60
2022-09-15T09:56:55.029Z,1.70
2022-09-15T09:59:35.742Z,1.70
2022-09-15T10:02:22.570Z,1.93
2022-09-15T10:04:52.318Z,1.50
2022-09-15T10:07:23.103Z,1.60
2022-09-15T10:09:54.142Z,1.60
2022-09-15T10:12:26.205Z,1.70
2022-09-15T10:14:57.991Z,1.67
2022-09-15T10:17:28.303Z,1.70
2022-09-15T10:19:58.356Z,1.60
2022-09-15T10:22:31.494Z,1.60
2022-09-15T10:25:00.483Z,1.70
2022-09-15T10:27:31.245Z,1.70
2022-09-15T10:30:17.936Z,1.70
2022-09-15T10:32:45.953Z,1.60
2022-09-15T10:35:15.500Z,1.80
2022-09-15T10:37:58.443Z,1.80
2022-09-15T10:40:46.910Z,1.80
2022-09-15T10:43:32.115Z,1.90
2022-09-15T10:46:06.434Z,1.53
2022-09-15T10:48:55.483Z,1.70
2022-09-15T10:51:36.798Z,1.70
2022-09-15T10:54:27.643Z,1.70
2022-09-15T10:57:03.999Z,1.70
2022-09-15T10:59:47.338Z,1.73
2022-09-15T11:02:45.367Z,1.60
2022-09-15T11:05:27.315Z,1.50
2022-09-15T11:08:16.223Z,1.57
2022-09-15T11:10:50.573Z,1.40
2022-09-15T11:13:29.217Z,1.50
2022-09-15T11:16:05.859Z,1.43
2022-09-15T11:18:48.175Z,1.60
2022-09-15T11:21:28.461Z,1.50
2022-09-15T11:24:23.351Z,1.67
2022-09-15T11:26:57.872Z,1.73
2022-09-15T11:29:30.922Z,1.43
2022-09-15T11:32:05.834Z,1.50
2022-09-15T11:34:41.380Z,1.50
2022-09-15T11:37:16.322Z,1.40
2022-09-15T11:39:51.480Z,1.40
2022-09-15T11:42:26.354Z,1.40
2022-09-15T11:44:56.514Z,1.60
2022-09-15T11:47:32.170Z,1.60
2022-09-15T11:50:07.394Z,1.60
2022-09-15T11:52:47.653Z,1.83
2022-09-15T11:55:24.329Z,1.87
2022-09-15T11:57:59.719Z,1.90
2022-09-15T12:00:27.856Z,1.77
2022-09-15T12:03:07.715Z,1.70
2022-09-15T12:05:44.017Z,1.80
2022-09-15T12:08:22.519Z,1.80
2022-09-15T12:10:54.649Z,1.80
2022-09-15T12:13:25.228Z,1.80
2022-09-15T12:15:54.301Z,1.67
2022-09-15T12:18:38.984Z,1.60
2022-09-15T12:21:17.080Z,1.60
2022-09-15T12:23:48.998Z,1.60
2022-09-15T12:26:19.222Z,1.70
2022-09-15T12:28:57.422Z,1.80
2022-09-15T12:31:30.915Z,1.80
2022-09-15T12:34:01.166Z,1.80
2022-09-15T12:36:48.702Z,1.90
2022-09-15T12:39:29.670Z,1.60
2022-09-15T12:42:06.620Z,1.80
2022-09-15T12:44:37.949Z,1.90
2022-09-15T12:47:08.909Z,1.80
2022-09-15T12:49:44.620Z,1.70
2022-09-15T12:52:14.751Z,1.70
2022-09-15T12:54:45.771Z,1.70
2022-09-15T12:57:24.241Z,1.63
2022-09-15T13:00:28.838Z,1.80
2022-09-15T13:02:57.424Z,1.70
2022-09-15T13:06:07.237Z,1.60
2022-09-15T13:08:54.391Z,1.60
2022-09-15T13:11:34.705Z,1.60
2022-09-15T13:14:14.707Z,1.70
2022-09-15T13:16:51.763Z,1.80
2022-09-15T13:19:24.432Z,1.57
2022-09-15T13:22:01.514Z,1.70
2022-09-15T13:24:43.215Z,1.70
2022-09-15T13:27:13.173Z,1.80
2022-09-15T13:29:47.207Z,1.40
2022-09-15T13:32:31.931Z,1.50
2022-09-15T13:35:27.669Z,1.40
2022-09-15T13:38:21.783Z,1.50
2022-09-15T13:41:35.934Z,1.43
2022-09-15T13:44:23.870Z,1.70
2022-09-15T13:47:05.508Z,1.53
2022-09-15T13:49:52.604Z,1.70
2022-09-15T13:52:31.252Z,1.63
2022-09-15T13:55:19.617Z,1.80
2022-09-15T14:00:49.538Z,2.00
2022-09-15T14:03:25.726Z,1.97
2022-09-15T14:05:54.628Z,1.90
2022-09-15T14:08:26.397Z,2.00
2022-09-15T14:10:57.503Z,1.70
2022-09-15T14:13:28.645Z,1.80
2022-09-15T14:16:03.689Z,1.70
2022-09-15T14:18:41.787Z,1.90
2022-09-15T14:21:18.105Z,1.70
2022-09-15T14:23:47.908Z,1.73
2022-09-15T14:26:18.163Z,1.90
2022-09-15T14:28:51.393Z,1.80
2022-09-15T14:31:29.123Z,2.00
2022-09-15T14:33:57.592Z,1.90
2022-09-15T14:36:28.532Z,1.80
2022-09-15T14:39:09.126Z,1.80
2022-09-15T14:41:37.733Z,1.80
2022-09-15T14:47:19.028Z,1.73
2022-09-15T14:49:47.082Z,1.80
2022-09-15T14:52:26.008Z,1.90
2022-09-15T14:55:00.420Z,1.70
2022-09-15T14:57:31.769Z,1.67
2022-09-15T15:00:05.965Z,1.87
2022-09-15T15:02:49.823Z,1.90
2022-09-15T15:05:22.517Z,1.80
2022-09-15T15:07:51.711Z,1.80
2022-09-15T15:10:22.922Z,1.73
2022-09-15T15:12:53.664Z,1.67
2022-09-15T15:15:22.324Z,1.80
2022-09-15T15:17:54.857Z,1.80
2022-09-15T15:20:25.648Z,1.70
2022-09-15T15:23:15.513Z,1.80
2022-09-15T15:25:44.217Z,1.60
2022-09-15T15:28:31.262Z,1.60
2022-09-15T15:31:14.783Z,1.70
2022-09-15T15:33:50.011Z,1.70
2022-09-15T15:36:23.923Z,1.70
2022-09-15T15:38:54.298Z,1.80
2022-09-15T15:41:24.423Z,1.60
2022-09-15T15:44:03.250Z,1.90
2022-09-15T15:46:52.940Z,1.90
2022-09-15T15:49:27.090Z,1.80
2022-09-15T15:51:56.115Z,1.60
2022-09-15T15:54:24.485Z,1.53
2022-09-15T15:56:53.267Z,1.60
2022-09-15T15:59:21.526Z,1.50
2022-09-15T16:01:52.944Z,1.50
2022-09-15T16:04:22.507Z,1.80
2022-09-15T16:06:50.988Z,1.60
2022-09-15T16:09:20.804Z,1.80
2022-09-15T16:11:49.088Z,1.67
2022-09-15T16:14:17.211Z,1.70
2022-09-15T16:16:45.237Z,1.50
2022-09-15T16:19:13.698Z,1.67
2022-09-15T16:21:43.434Z,1.80
2022-09-15T16:24:14.709Z,1.80
2022-09-15T16:26:43.982Z,1.60
2022-09-15T16:29:12.555Z,1.50
2022-09-15T16:31:40.878Z,1.50
2022-09-15T16:34:11.924Z,1.60
2022-09-15T16:36:39.960Z,1.53
2022-09-15T16:39:09.376Z,1.60
2022-09-15T16:41:39.404Z,1.70
2022-09-15T16:44:15.847Z,1.70
2022-09-15T16:46:43.860Z,1.70
2022-09-15T16:49:11.972Z,1.60
2022-09-15T16:51:39.986Z,1.50
2022-09-15T16:54:16.265Z,1.50
2022-09-15T16:56:44.534Z,1.40
2022-09-15T16:59:12.827Z,1.60
2022-09-15T17:01:41.156Z,1.70
2022-09-15T17:04:15.862Z,1.60
2022-09-15T17:06:44.449Z,1.70
2022-09-15T17:09:14.490Z,1.50
2022-09-15T17:11:43.216Z,1.43
2022-09-15T17:14:15.334Z,1.63
2022-09-15T17:16:46.775Z,1.53
2022-09-15T17:19:14.685Z,1.70
2022-09-15T17:21:43.635Z,1.60
2022-09-15T17:24:13.505Z,1.60
2022-09-15T17:26:41.426Z,1.70
2022-09-15T17:29:09.685Z,1.63
2022-09-15T17:31:37.741Z,1.60
2022-09-15T17:34:05.790Z,1.70
2022-09-15T17:36:36.218Z,1.70
2022-09-15T17:39:04.346Z,1.70
2022-09-15T17:41:33.990Z,1.70
2022-09-15T17:44:02.166Z,1.70
2022-09-15T17:46:30.140Z,1.90
2022-09-15T17:48:58.121Z,1.90
2022-09-15T17:51:26.169Z,1.60
2022-09-15T17:53:54.982Z,1.73
2022-09-15T17:56:22.941Z,1.70
2022-09-15T17:58:52.340Z,1.90
2022-09-15T18:01:20.346Z,1.77
2022-09-15T18:03:48.637Z,1.80
2022-09-15T18:06:16.568Z,1.83
2022-09-15T18:08:44.494Z,1.80
2022-09-15T18:11:15.561Z,1.70
2022-09-15T18:13:43.527Z,1.70
2022-09-15T18:16:15.219Z,1.60
2022-09-15T18:18:43.684Z,1.60
2022-09-15T18:21:25.808Z,1.60
2022-09-15T18:23:53.891Z,1.60
2022-09-15T18:26:26.231Z,1.60
2022-09-15T18:28:56.062Z,1.53
2022-09-15T18:31:25.484Z,1.43
2022-09-15T18:33:53.627Z,1.40
2022-09-15T18:36:21.795Z,1.40
2022-09-15T18:38:49.714Z,1.60
2022-09-15T18:41:17.743Z,1.40
2022-09-15T18:43:49.148Z,1.40
2022-09-15T18:46:18.712Z,1.23
2022-09-15T18:48:48.216Z,1.40
2022-09-15T18:51:23.626Z,1.50
2022-09-15T18:53:54.387Z,1.47
2022-09-15T18:56:22.759Z,1.50
2022-09-15T18:58:54.056Z,1.40
2022-09-15T19:01:22.335Z,1.60
2022-09-15T19:03:51.750Z,1.50
2022-09-15T19:06:19.887Z,1.30
2022-09-15T19:08:47.836Z,1.50
2022-09-15T19:11:16.081Z,1.40
2022-09-15T19:13:44.025Z,1.50
2022-09-15T19:16:12.400Z,1.50
2022-09-15T19:18:40.482Z,1.20
2022-09-15T19:21:12.151Z,1.40
2022-09-15T19:23:40.315Z,1.40
2022-09-15T19:26:13.054Z,1.40
2022-09-15T19:28:41.045Z,1.40
2022-09-15T19:31:09.175Z,1.30
2022-09-15T19:33:37.905Z,1.30
2022-09-15T19:36:27.481Z,1.40
2022-09-15T19:38:58.063Z,1.40
2022-09-15T19:41:26.074Z,1.50
2022-09-15T19:43:54.343Z,1.40
2022-09-15T19:46:25.420Z,1.20
2022-09-15T19:48:54.003Z,1.30
2022-09-15T19:51:23.045Z,1.30
2022-09-15T19:53:53.979Z,1.40
2022-09-15T19:56:26.151Z,1.50
2022-09-15T19:58:55.731Z,1.30
2022-09-15T20:01:24.724Z,1.30
2022-09-15T20:03:55.100Z,1.20
2022-09-15T20:06:23.565Z,1.40
2022-09-15T20:08:54.407Z,1.43
2022-09-15T20:11:23.738Z,1.40
2022-09-15T20:13:52.282Z,1.40
2022-09-15T20:16:22.242Z,1.40
2022-09-15T20:18:52.630Z,1.27
2022-09-15T20:21:45.743Z,1.50
2022-09-15T20:24:11.091Z,1.50
2022-09-15T20:26:41.314Z,1.30
2022-09-15T20:29:09.438Z,1.60
2022-09-15T20:31:37.873Z,1.30
2022-09-15T20:34:06.031Z,1.40
2022-09-15T20:36:36.120Z,1.40
2022-09-15T20:39:06.155Z,1.30
2022-09-15T20:41:34.094Z,1.30
2022-09-15T20:44:05.272Z,1.40
2022-09-15T20:46:33.628Z,1.30
2022-09-15T20:49:01.967Z,1.40
2022-09-15T20:51:31.803Z,1.30
2022-09-15T20:54:01.223Z,1.40
2022-09-15T20:56:31.514Z,1.40
2022-09-15T20:59:00.700Z,1.43
2022-09-15T21:01:33.576Z,1.40
2022-09-15T21:04:01.706Z,1.40
2022-09-15T21:06:29.912Z,1.40
2022-09-15T21:08:58.610Z,1.60
2022-09-15T21:11:28.104Z,1.53
2022-09-15T21:13:56.384Z,1.50
2022-09-15T21:16:25.904Z,1.40
2022-09-15T21:18:56.509Z,1.50
2022-09-15T21:21:26.318Z,1.50
2022-09-15T21:23:55.835Z,1.50
2022-09-15T21:26:25.408Z,1.40
2022-09-15T21:28:54.686Z,1.57
2022-09-15T21:31:25.481Z,1.50
2022-09-15T21:33:55.383Z,1.50
2022-09-15T21:36:24.801Z,1.40
2022-09-15T21:38:56.203Z,1.40
2022-09-15T21:41:26.293Z,1.40
2022-09-15T21:43:55.843Z,1.50
2022-09-15T21:46:26.601Z,1.30
2022-09-15T21:48:57.543Z,1.30
2022-09-15T21:51:26.803Z,1.40
2022-09-15T21:53:56.155Z,1.40
2022-09-15T21:56:25.663Z,1.40
2022-09-15T21:58:54.274Z,1.37
2022-09-15T22:01:24.286Z,1.20
2022-09-15T22:03:54.127Z,1.37
2022-09-15T22:06:27.641Z,1.50
2022-09-15T22:08:56.085Z,1.30
2022-09-15T22:11:24.631Z,1.37
2022-09-15T22:13:52.811Z,1.30
2022-09-15T22:16:22.530Z,1.50
2022-09-15T22:18:51.743Z,1.40
2022-09-15T22:21:21.348Z,1.50
2022-09-15T22:23:52.217Z,1.30
2022-09-15T22:26:21.870Z,1.47
2022-09-15T22:28:50.014Z,1.30
2022-09-15T22:31:19.808Z,1.40
2022-09-15T22:33:48.273Z,1.30
2022-09-15T22:36:18.353Z,1.30
2022-09-15T22:38:46.749Z,1.20
2022-09-15T22:41:18.592Z,1.50
2022-09-15T22:43:49.023Z,1.33
2022-09-15T22:46:18.887Z,1.30
2022-09-15T22:48:47.010Z,1.30
2022-09-15T22:51:15.787Z,1.40
2022-09-15T22:53:44.131Z,1.30
2022-09-15T22:56:15.176Z,1.40
2022-09-15T22:58:45.230Z,1.30
2022-09-15T23:01:16.304Z,1.30
2022-09-15T23:03:47.579Z,1.40
2022-09-15T23:06:15.603Z,1.00
2022-09-15T23:08:43.559Z,1.30
2022-09-15T23:11:14.233Z,1.43
2022-09-15T23:13:42.894Z,1.23
2022-09-15T23:16:12.265Z,1.40
2022-09-15T23:18:40.368Z,1.50
2022-09-15T23:21:10.477Z,1.30
2022-09-15T23:23:40.199Z,1.40
2022-09-15T23:26:10.300Z,1.20
2022-09-15T23:28:38.963Z,1.20
2022-09-15T23:31:07.702Z,1.20
2022-09-15T23:33:37.262Z,1.30
2022-09-15T23:36:07.712Z,1.10
2022-09-15T23:38:36.617Z,1.10
2022-09-15T23:41:05.183Z,1.20
2022-09-15T23:43:33.332Z,1.20
2022-09-15T23:46:01.846Z,1.40
2022-09-15T23:48:31.595Z,1.40
2022-09-15T23:51:01.299Z,1.30
2022-09-15T23:53:29.372Z,1.30
2022-09-15T23:55:57.671Z,1.20
2022-09-15T23:58:25.706Z,1.40
